sensor_id;sensor_type;location;lat;lon;timestamp;pressure;altitude;pressure_sealevel;temperature;humidity
32109;BME280;18624;50.042;8.436;2023-06-10T00:02:13;100172.63;;;21.52;59.23
32109;BME280;18624;50.042;8.436;2023-06-10T00:04:40;100178.47;;;21.48;59.61
32109;BME280;18624;50.042;8.436;2023-06-10T00:07:07;100177.72;;;21.48;59.51
32109;BME280;18624;50.042;8.436;2023-06-10T00:09:38;100171.63;;;21.44;59.21
32109;BME280;18624;50.042;8.436;2023-06-10T00:12:06;100177.97;;;21.44;59.49
32109;BME280;18624;50.042;8.436;2023-06-10T00:14:34;100169.59;;;21.44;59.29
32109;BME280;18624;50.042;8.436;2023-06-10T00:17:01;100166.06;;;21.44;59.37
32109;BME280;18624;50.042;8.436;2023-06-10T00:19:28;100166.56;;;21.42;59.50
32109;BME280;18624;50.042;8.436;2023-06-10T00:21:56;100168.59;;;21.42;59.42
32109;BME280;18624;50.042;8.436;2023-06-10T00:24:23;100165.56;;;21.40;59.59
32109;BME280;18624;50.042;8.436;2023-06-10T00:26:50;100115.66;;;21.08;59.07
32109;BME280;18624;50.042;8.436;2023-06-10T00:29:17;100120.69;;;21.10;59.54
32109;BME280;18624;50.042;8.436;2023-06-10T00:31:44;100118.91;;;21.07;59.17
32109;BME280;18624;50.042;8.436;2023-06-10T00:34:11;100160.50;;;21.33;59.38
32109;BME280;18624;50.042;8.436;2023-06-10T00:36:38;100157.16;;;21.29;59.18
32109;BME280;18624;50.042;8.436;2023-06-10T00:39:04;100156.66;;;21.24;59.28
32109;BME280;18624;50.042;8.436;2023-06-10T00:41:31;100155.16;;;21.23;59.36
32109;BME280;18624;50.042;8.436;2023-06-10T00:43:58;100155.91;;;21.24;58.81
32109;BME280;18624;50.042;8.436;2023-06-10T00:46:24;100161.47;;;21.24;58.98
32109;BME280;18624;50.042;8.436;2023-06-10T00:48:54;100167.06;;;21.24;58.81
32109;BME280;18624;50.042;8.436;2023-06-10T00:51:22;100169.06;;;21.23;58.79
32109;BME280;18624;50.042;8.436;2023-06-10T00:53:49;100169.06;;;21.23;58.92
32109;BME280;18624;50.042;8.436;2023-06-10T00:56:16;100165.28;;;21.21;59.04
32109;BME280;18624;50.042;8.436;2023-06-10T00:58:42;100163.00;;;21.19;58.80
32109;BME280;18624;50.042;8.436;2023-06-10T01:01:10;100126.03;;;20.91;58.68
32109;BME280;18624;50.042;8.436;2023-06-10T01:03:39;100172.88;;;21.20;58.46
32109;BME280;18624;50.042;8.436;2023-06-10T01:08:55;100166.03;;;21.10;58.43
32109;BME280;18624;50.042;8.436;2023-06-10T01:11:35;100124.78;;;20.81;58.48
32109;BME280;18624;50.042;8.436;2023-06-10T01:14:03;100168.31;;;21.06;58.29
32109;BME280;18624;50.042;8.436;2023-06-10T01:16:31;100166.81;;;21.05;58.22
32109;BME280;18624;50.042;8.436;2023-06-10T01:18:58;100166.81;;;21.05;58.31
32109;BME280;18624;50.042;8.436;2023-06-10T01:21:24;100175.41;;;21.07;58.14
32109;BME280;18624;50.042;8.436;2023-06-10T01:23:52;100173.13;;;21.06;58.37
32109;BME280;18624;50.042;8.436;2023-06-10T01:26:23;100168.56;;;21.03;58.05
32109;BME280;18624;50.042;8.436;2023-06-10T01:28:56;100170.59;;;21.02;58.59
32109;BME280;18624;50.042;8.436;2023-06-10T01:31:38;100176.94;;;20.97;58.22
32109;BME280;18624;50.042;8.436;2023-06-10T01:34:10;100176.69;;;20.95;58.37
32109;BME280;18624;50.042;8.436;2023-06-10T01:36:40;100177.16;;;20.93;58.13
32109;BME280;18624;50.042;8.436;2023-06-10T01:39:08;100171.34;;;20.91;58.14
32109;BME280;18624;50.042;8.436;2023-06-10T01:41:37;100168.81;;;20.88;58.09
32109;BME280;18624;50.042;8.436;2023-06-10T01:44:04;100146.50;;;20.71;57.99
32109;BME280;18624;50.042;8.436;2023-06-10T01:46:31;100173.13;;;20.78;58.18
32109;BME280;18624;50.042;8.436;2023-06-10T01:48:57;100182.00;;;20.76;57.88
32109;BME280;18624;50.042;8.436;2023-06-10T01:51:24;100177.94;;;20.77;57.64
32109;BME280;18624;50.042;8.436;2023-06-10T01:53:50;100180.44;;;20.75;57.71
32109;BME280;18624;50.042;8.436;2023-06-10T01:56:17;100176.16;;;20.74;57.77
32109;BME280;18624;50.042;8.436;2023-06-10T01:58:46;100121.63;;;20.34;57.67
32109;BME280;18624;50.042;8.436;2023-06-10T02:01:13;100177.13;;;20.71;57.91
32109;BME280;18624;50.042;8.436;2023-06-10T02:03:39;100172.84;;;20.70;57.62
32109;BME280;18624;50.042;8.436;2023-06-10T02:06:07;100174.63;;;20.67;57.34
32109;BME280;18624;50.042;8.436;2023-06-10T02:08:34;99894.06;;;18.74;57.04
32109;BME280;18624;50.042;8.436;2023-06-10T02:11:00;100179.16;;;20.65;57.08
32109;BME280;18624;50.042;8.436;2023-06-10T02:13:28;100175.09;;;20.60;56.88
32109;BME280;18624;50.042;8.436;2023-06-10T02:15:55;100183.72;;;20.62;56.98
32109;BME280;18624;50.042;8.436;2023-06-10T02:18:22;100182.44;;;20.58;56.85
32109;BME280;18624;50.042;8.436;2023-06-10T02:20:48;100179.16;;;20.59;56.86
32109;BME280;18624;50.042;8.436;2023-06-10T02:23:15;100173.59;;;20.54;56.51
32109;BME280;18624;50.042;8.436;2023-06-10T02:25:42;100176.63;;;20.56;56.33
32109;BME280;18624;50.042;8.436;2023-06-10T02:28:08;100181.44;;;20.55;56.10
32109;BME280;18624;50.042;8.436;2023-06-10T02:30:35;100175.59;;;20.53;56.36
32109;BME280;18624;50.042;8.436;2023-06-10T02:33:03;100183.69;;;20.51;56.31
32109;BME280;18624;50.042;8.436;2023-06-10T02:35:29;100175.09;;;20.49;56.04
32109;BME280;18624;50.042;8.436;2023-06-10T02:37:56;100141.31;;;20.13;55.64
32109;BME280;18624;50.042;8.436;2023-06-10T02:40:22;100186.91;;;20.44;55.55
32109;BME280;18624;50.042;8.436;2023-06-10T02:42:49;100180.34;;;20.41;55.55
32109;BME280;18624;50.042;8.436;2023-06-10T02:45:16;100190.44;;;20.39;55.37
32109;BME280;18624;50.042;8.436;2023-06-10T02:47:43;100184.13;;;20.38;55.40
32109;BME280;18624;50.042;8.436;2023-06-10T02:50:11;100191.47;;;20.36;55.30
32109;BME280;18624;50.042;8.436;2023-06-10T02:52:56;100185.91;;;20.36;55.13
32109;BME280;18624;50.042;8.436;2023-06-10T02:55:23;100184.38;;;20.35;55.26
32109;BME280;18624;50.042;8.436;2023-06-10T02:57:56;100189.69;;;20.33;55.32
32109;BME280;18624;50.042;8.436;2023-06-10T03:00:23;100191.72;;;20.32;54.94
32109;BME280;18624;50.042;8.436;2023-06-10T03:02:51;100181.84;;;20.31;54.93
32109;BME280;18624;50.042;8.436;2023-06-10T03:05:22;100187.13;;;20.29;54.94
32109;BME280;18624;50.042;8.436;2023-06-10T03:07:51;100188.16;;;20.32;54.52
32109;BME280;18624;50.042;8.436;2023-06-10T03:10:18;100183.34;;;20.27;54.36
32109;BME280;18624;50.042;8.436;2023-06-10T03:12:45;100192.44;;;20.27;54.28
32109;BME280;18624;50.042;8.436;2023-06-10T03:15:12;100186.09;;;20.21;54.19
32109;BME280;18624;50.042;8.436;2023-06-10T03:17:39;100183.06;;;20.19;54.28
32109;BME280;18624;50.042;8.436;2023-06-10T03:20:06;100196.97;;;20.19;54.06
32109;BME280;18624;50.042;8.436;2023-06-10T03:22:38;100196.44;;;20.15;53.99
32109;BME280;18624;50.042;8.436;2023-06-10T03:25:09;100175.13;;;20.01;53.99
32109;BME280;18624;50.042;8.436;2023-06-10T03:27:43;100202.78;;;20.21;54.12
32109;BME280;18624;50.042;8.436;2023-06-10T03:30:12;100197.97;;;20.21;53.51
32109;BME280;18624;50.042;8.436;2023-06-10T03:32:40;100195.69;;;20.20;54.21
32109;BME280;18624;50.042;8.436;2023-06-10T03:35:08;100201.50;;;20.16;55.03
32109;BME280;18624;50.042;8.436;2023-06-10T03:37:36;100203.28;;;20.14;55.13
32109;BME280;18624;50.042;8.436;2023-06-10T03:40:04;100197.97;;;20.16;55.57
32109;BME280;18624;50.042;8.436;2023-06-10T03:42:32;100201.75;;;20.13;55.84
32109;BME280;18624;50.042;8.436;2023-06-10T03:44:58;100199.97;;;20.10;55.43
32109;BME280;18624;50.042;8.436;2023-06-10T03:47:33;100203.47;;;20.05;54.67
32109;BME280;18624;50.042;8.436;2023-06-10T03:50:03;100207.03;;;20.05;55.23
32109;BME280;18624;50.042;8.436;2023-06-10T03:52:31;100205.97;;;20.03;55.78
32109;BME280;18624;50.042;8.436;2023-06-10T03:54:58;100190.00;;;19.92;56.05
32109;BME280;18624;50.042;8.436;2023-06-10T03:57:24;100211.53;;;20.03;55.44
32109;BME280;18624;50.042;8.436;2023-06-10T03:59:51;100218.59;;;19.98;54.61
32109;BME280;18624;50.042;8.436;2023-06-10T04:02:19;100215.56;;;19.96;55.26
32109;BME280;18624;50.042;8.436;2023-06-10T04:04:45;100211.53;;;19.97;55.78
32109;BME280;18624;50.042;8.436;2023-06-10T04:07:13;100208.25;;;19.98;55.91
32109;BME280;18624;50.042;8.436;2023-06-10T04:09:40;100211.78;;;19.99;56.43
32109;BME280;18624;50.042;8.436;2023-06-10T04:12:07;100216.09;;;20.00;56.79
32109;BME280;18624;50.042;8.436;2023-06-10T04:14:36;100221.13;;;19.96;57.55
32109;BME280;18624;50.042;8.436;2023-06-10T04:17:05;100229.19;;;19.94;57.38
32109;BME280;18624;50.042;8.436;2023-06-10T04:19:36;100211.19;;;19.84;57.64
32109;BME280;18624;50.042;8.436;2023-06-10T04:22:02;100229.72;;;19.92;57.57
32109;BME280;18624;50.042;8.436;2023-06-10T04:24:31;100191.16;;;19.68;57.15
32109;BME280;18624;50.042;8.436;2023-06-10T04:26:57;100236.31;;;19.95;56.44
32109;BME280;18624;50.042;8.436;2023-06-10T04:29:24;100225.94;;;19.95;56.89
32109;BME280;18624;50.042;8.436;2023-06-10T04:31:52;100226.41;;;19.94;56.88
32109;BME280;18624;50.042;8.436;2023-06-10T04:34:19;100231.97;;;19.94;57.15
32109;BME280;18624;50.042;8.436;2023-06-10T04:36:45;100123.34;;;19.23;57.28
32109;BME280;18624;50.042;8.436;2023-06-10T04:39:13;100238.59;;;19.96;57.77
32109;BME280;18624;50.042;8.436;2023-06-10T04:41:39;100235.81;;;20.02;58.33
32109;BME280;18624;50.042;8.436;2023-06-10T04:44:07;100226.22;;;20.03;57.88
32109;BME280;18624;50.042;8.436;2023-06-10T04:46:33;100230.53;;;20.04;58.80
32109;BME280;18624;50.042;8.436;2023-06-10T04:49:00;100232.59;;;20.09;57.85
32109;BME280;18624;50.042;8.436;2023-06-10T04:51:26;100231.84;;;20.09;57.70
32109;BME280;18624;50.042;8.436;2023-06-10T04:53:53;100228.31;;;20.14;57.13
32109;BME280;18624;50.042;8.436;2023-06-10T04:56:19;100222.75;;;20.19;56.68
32109;BME280;18624;50.042;8.436;2023-06-10T04:58:46;100223.28;;;20.23;56.71
32109;BME280;18624;50.042;8.436;2023-06-10T05:01:12;100226.09;;;20.29;56.35
32109;BME280;18624;50.042;8.436;2023-06-10T05:03:39;100231.16;;;20.31;56.40
32109;BME280;18624;50.042;8.436;2023-06-10T05:06:06;100225.09;;;20.32;56.84
32109;BME280;18624;50.042;8.436;2023-06-10T05:08:33;100164.22;;;19.91;57.01
32109;BME280;18624;50.042;8.436;2023-06-10T05:10:59;100231.72;;;20.40;57.39
32109;BME280;18624;50.042;8.436;2023-06-10T05:13:26;100225.41;;;20.40;57.68
32109;BME280;18624;50.042;8.436;2023-06-10T05:15:52;100236.03;;;20.47;57.63
32109;BME280;18624;50.042;8.436;2023-06-10T05:18:19;100230.50;;;20.53;57.31
32109;BME280;18624;50.042;8.436;2023-06-10T05:20:45;100230.03;;;20.60;57.21
32109;BME280;18624;50.042;8.436;2023-06-10T05:23:11;100205.16;;;20.45;55.64
32109;BME280;18624;50.042;8.436;2023-06-10T05:25:38;100237.41;;;20.74;55.84
32109;BME280;18624;50.042;8.436;2023-06-10T05:28:05;100243.75;;;20.74;55.91
32109;BME280;18624;50.042;8.436;2023-06-10T05:30:32;100234.91;;;20.76;57.09
32109;BME280;18624;50.042;8.436;2023-06-10T05:33:02;100235.66;;;20.77;58.56
32109;BME280;18624;50.042;8.436;2023-06-10T05:35:29;100236.41;;;20.77;58.24
32109;BME280;18624;50.042;8.436;2023-06-10T05:37:56;100196.09;;;20.50;58.94
32109;BME280;18624;50.042;8.436;2023-06-10T05:40:22;100220.94;;;20.70;60.02
32109;BME280;18624;50.042;8.436;2023-06-10T05:42:49;100245.81;;;20.85;60.57
32109;BME280;18624;50.042;8.436;2023-06-10T05:45:15;100239.50;;;20.90;59.08
32109;BME280;18624;50.042;8.436;2023-06-10T05:47:42;100240.75;;;20.95;59.32
32109;BME280;18624;50.042;8.436;2023-06-10T05:50:09;100240.25;;;21.02;59.65
32109;BME280;18624;50.042;8.436;2023-06-10T05:52:36;100241.56;;;21.12;56.95
32109;BME280;18624;50.042;8.436;2023-06-10T05:55:03;100235.44;;;21.03;56.51
32109;BME280;18624;50.042;8.436;2023-06-10T05:57:30;100246.59;;;21.14;57.28
32109;BME280;18624;50.042;8.436;2023-06-10T05:59:56;100212.63;;;20.87;58.70
32109;BME280;18624;50.042;8.436;2023-06-10T06:02:24;100252.19;;;21.25;56.79
32109;BME280;18624;50.042;8.436;2023-06-10T06:04:51;100255.78;;;21.31;55.62
32109;BME280;18624;50.042;8.436;2023-06-10T06:07:18;100245.91;;;21.36;54.26
32109;BME280;18624;50.042;8.436;2023-06-10T06:09:47;100252.47;;;21.38;53.11
32109;BME280;18624;50.042;8.436;2023-06-10T06:12:13;100242.59;;;21.43;53.45
32109;BME280;18624;50.042;8.436;2023-06-10T06:14:40;100238.78;;;21.46;53.35
32109;BME280;18624;50.042;8.436;2023-06-10T06:17:07;100245.88;;;21.47;53.77
32109;BME280;18624;50.042;8.436;2023-06-10T06:19:33;100256.53;;;21.48;53.67
32109;BME280;18624;50.042;8.436;2023-06-10T06:22:00;100235.25;;;21.51;53.53
32109;BME280;18624;50.042;8.436;2023-06-10T06:24:26;100166.03;;;21.10;53.17
32109;BME280;18624;50.042;8.436;2023-06-10T06:26:53;100190.91;;;21.36;53.44
32109;BME280;18624;50.042;8.436;2023-06-10T06:29:19;100243.06;;;21.69;51.82
32109;BME280;18624;50.042;8.436;2023-06-10T06:31:46;100243.84;;;21.81;51.41
32109;BME280;18624;50.042;8.436;2023-06-10T06:34:12;100252.19;;;21.87;51.55
32109;BME280;18624;50.042;8.436;2023-06-10T06:36:42;100253.72;;;21.82;51.89
32109;BME280;18624;50.042;8.436;2023-06-10T06:39:08;100244.59;;;21.82;52.20
32109;BME280;18624;50.042;8.436;2023-06-10T06:41:35;100249.91;;;21.91;51.79
32109;BME280;18624;50.042;8.436;2023-06-10T06:44:01;100253.41;;;21.97;51.48
32109;BME280;18624;50.042;8.436;2023-06-10T06:46:37;100248.09;;;22.05;52.36
32109;BME280;18624;50.042;8.436;2023-06-10T06:49:03;100262.81;;;22.16;51.93
32109;BME280;18624;50.042;8.436;2023-06-10T06:51:29;100263.28;;;22.26;51.45
32109;BME280;18624;50.042;8.436;2023-06-10T06:53:56;100250.81;;;22.33;50.90
32109;BME280;18624;50.042;8.436;2023-06-10T06:56:25;100263.97;;;22.49;50.55
32109;BME280;18624;50.042;8.436;2023-06-10T06:58:53;100257.31;;;22.58;50.59
32109;BME280;18624;50.042;8.436;2023-06-10T07:01:23;100256.75;;;22.70;50.80
32109;BME280;18624;50.042;8.436;2023-06-10T07:03:49;100268.38;;;22.80;50.08
32109;BME280;18624;50.042;8.436;2023-06-10T07:06:16;100184.25;;;22.48;49.88
32109;BME280;18624;50.042;8.436;2023-06-10T07:08:42;100264.13;;;23.15;48.95
32109;BME280;18624;50.042;8.436;2023-06-10T07:11:09;100266.09;;;23.25;48.61
32109;BME280;18624;50.042;8.436;2023-06-10T07:13:35;100255.81;;;23.39;49.02
32109;BME280;18624;50.042;8.436;2023-06-10T07:16:02;100263.81;;;23.54;48.39
32109;BME280;18624;50.042;8.436;2023-06-10T07:18:28;100263.75;;;23.65;47.02
32109;BME280;18624;50.042;8.436;2023-06-10T07:20:55;100268.75;;;23.72;47.06
32109;BME280;18624;50.042;8.436;2023-06-10T07:23:21;100267.72;;;23.75;47.75
32109;BME280;18624;50.042;8.436;2023-06-10T07:25:48;100269.66;;;23.86;48.26
32109;BME280;18624;50.042;8.436;2023-06-10T07:28:14;100270.09;;;23.96;47.54
32109;BME280;18624;50.042;8.436;2023-06-10T07:30:41;100268.97;;;24.05;46.47
32109;BME280;18624;50.042;8.436;2023-06-10T07:33:07;100274.50;;;24.10;46.21
32109;BME280;18624;50.042;8.436;2023-06-10T07:35:34;100268.09;;;24.15;46.39
32109;BME280;18624;50.042;8.436;2023-06-10T07:38:00;100271.50;;;24.27;47.36
32109;BME280;18624;50.042;8.436;2023-06-10T07:40:27;100272.22;;;24.33;46.21
32109;BME280;18624;50.042;8.436;2023-06-10T07:42:53;100268.84;;;24.40;46.29
32109;BME280;18624;50.042;8.436;2023-06-10T07:45:20;100271.59;;;24.46;46.20
32109;BME280;18624;50.042;8.436;2023-06-10T07:47:46;100272.09;;;24.44;45.83
32109;BME280;18624;50.042;8.436;2023-06-10T07:50:13;100270.84;;;24.45;46.07
32109;BME280;18624;50.042;8.436;2023-06-10T07:52:39;100271.97;;;24.56;46.43
32109;BME280;18624;50.042;8.436;2023-06-10T07:55:06;100271.69;;;24.59;45.86
32109;BME280;18624;50.042;8.436;2023-06-10T07:57:33;100269.84;;;24.62;46.15
32109;BME280;18624;50.042;8.436;2023-06-10T08:00:03;100240.78;;;24.46;45.72
32109;BME280;18624;50.042;8.436;2023-06-10T08:02:38;100274.03;;;24.74;44.89
32109;BME280;18624;50.042;8.436;2023-06-10T08:05:04;100264.16;;;24.67;45.12
32109;BME280;18624;50.042;8.436;2023-06-10T08:07:31;100273.56;;;24.70;45.36
32109;BME280;18624;50.042;8.436;2023-06-10T08:09:58;100271.59;;;24.84;45.44
32109;BME280;18624;50.042;8.436;2023-06-10T08:12:24;100270.31;;;24.85;44.48
32109;BME280;18624;50.042;8.436;2023-06-10T08:14:51;100272.50;;;24.92;44.71
32109;BME280;18624;50.042;8.436;2023-06-10T08:17:17;100276.72;;;24.98;45.14
32109;BME280;18624;50.042;8.436;2023-06-10T08:19:44;100274.91;;;25.01;44.80
32109;BME280;18624;50.042;8.436;2023-06-10T08:22:10;100275.00;;;25.14;44.57
32109;BME280;18624;50.042;8.436;2023-06-10T08:24:37;100273.66;;;25.34;46.38
32109;BME280;18624;50.042;8.436;2023-06-10T08:27:04;100282.44;;;25.44;45.62
32109;BME280;18624;50.042;8.436;2023-06-10T08:29:30;100279.56;;;25.49;44.33
32109;BME280;18624;50.042;8.436;2023-06-10T08:31:58;100275.91;;;25.55;43.83
32109;BME280;18624;50.042;8.436;2023-06-10T08:34:24;100271.75;;;25.42;43.48
32109;BME280;18624;50.042;8.436;2023-06-10T08:36:51;100276.72;;;25.36;44.39
32109;BME280;18624;50.042;8.436;2023-06-10T08:39:19;100275.28;;;25.30;44.27
32109;BME280;18624;50.042;8.436;2023-06-10T08:44:35;100277.91;;;25.41;44.03
32109;BME280;18624;50.042;8.436;2023-06-10T08:47:13;100278.38;;;25.45;44.30
32109;BME280;18624;50.042;8.436;2023-06-10T08:49:46;100276.13;;;25.57;44.39
32109;BME280;18624;50.042;8.436;2023-06-10T08:52:15;100274.50;;;25.61;45.62
32109;BME280;18624;50.042;8.436;2023-06-10T08:54:48;100277.75;;;25.65;44.07
32109;BME280;18624;50.042;8.436;2023-06-10T08:57:16;100239.75;;;25.51;44.91
32109;BME280;18624;50.042;8.436;2023-06-10T08:59:46;100265.84;;;25.91;44.57
32109;BME280;18624;50.042;8.436;2023-06-10T09:02:14;100262.06;;;25.89;43.84
32109;BME280;18624;50.042;8.436;2023-06-10T09:04:44;100264.44;;;25.98;43.55
32109;BME280;18624;50.042;8.436;2023-06-10T09:07:13;100260.25;;;26.05;46.35
32109;BME280;18624;50.042;8.436;2023-06-10T09:09:43;100261.84;;;26.13;43.56
32109;BME280;18624;50.042;8.436;2023-06-10T09:12:12;100253.97;;;26.12;43.62
32109;BME280;18624;50.042;8.436;2023-06-10T09:14:39;100263.81;;;26.18;43.29
32109;BME280;18624;50.042;8.436;2023-06-10T09:17:06;100251.16;;;26.25;43.25
32109;BME280;18624;50.042;8.436;2023-06-10T09:19:33;100239.69;;;26.23;42.58
32109;BME280;18624;50.042;8.436;2023-06-10T09:21:59;100245.19;;;26.42;43.99
32109;BME280;18624;50.042;8.436;2023-06-10T09:24:26;100248.00;;;26.55;44.23
32109;BME280;18624;50.042;8.436;2023-06-10T09:27:08;100237.78;;;26.79;43.48
32109;BME280;18624;50.042;8.436;2023-06-10T09:29:51;100241.19;;;26.98;43.04
32109;BME280;18624;50.042;8.436;2023-06-10T09:32:18;100241.84;;;26.91;41.68
32109;BME280;18624;50.042;8.436;2023-06-10T09:34:46;100244.94;;;26.80;42.44
32109;BME280;18624;50.042;8.436;2023-06-10T09:37:14;100210.47;;;26.66;42.30
32109;BME280;18624;50.042;8.436;2023-06-10T09:40:01;100237.31;;;26.88;42.88
32109;BME280;18624;50.042;8.436;2023-06-10T09:42:32;100235.19;;;27.01;41.74
32109;BME280;18624;50.042;8.436;2023-06-10T09:44:58;100237.47;;;27.03;42.46
32109;BME280;18624;50.042;8.436;2023-06-10T09:47:25;100236.44;;;26.93;41.73
32109;BME280;18624;50.042;8.436;2023-06-10T09:49:51;100236.22;;;26.91;41.53
32109;BME280;18624;50.042;8.436;2023-06-10T09:52:26;100234.84;;;26.84;41.71
32109;BME280;18624;50.042;8.436;2023-06-10T09:55:02;100227.28;;;26.79;42.37
32109;BME280;18624;50.042;8.436;2023-06-10T09:57:32;100232.31;;;26.94;41.80
32109;BME280;18624;50.042;8.436;2023-06-10T10:00:07;100230.28;;;26.94;42.24
32109;BME280;18624;50.042;8.436;2023-06-10T10:02:49;100237.91;;;27.07;42.43
32109;BME280;18624;50.042;8.436;2023-06-10T10:05:17;100227.78;;;27.25;41.67
32109;BME280;18624;50.042;8.436;2023-06-10T10:07:45;100231.47;;;27.41;41.85
32109;BME280;18624;50.042;8.436;2023-06-10T10:10:13;100221.38;;;27.45;41.60
32109;BME280;18624;50.042;8.436;2023-06-10T10:12:41;100229.47;;;27.49;41.48
32109;BME280;18624;50.042;8.436;2023-06-10T10:15:09;100225.34;;;27.50;40.78
32109;BME280;18624;50.042;8.436;2023-06-10T10:17:44;100230.03;;;27.47;40.08
32109;BME280;18624;50.042;8.436;2023-06-10T10:20:14;100226.66;;;27.49;39.74
32109;BME280;18624;50.042;8.436;2023-06-10T10:22:43;100219.31;;;27.46;40.46
32109;BME280;18624;50.042;8.436;2023-06-10T10:25:12;100220.06;;;27.46;41.47
32109;BME280;18624;50.042;8.436;2023-06-10T10:27:51;100224.34;;;27.40;40.34
32109;BME280;18624;50.042;8.436;2023-06-10T10:30:20;100211.09;;;27.27;40.89
32109;BME280;18624;50.042;8.436;2023-06-10T10:33:02;100179.47;;;27.13;41.13
32109;BME280;18624;50.042;8.436;2023-06-10T10:35:36;100216.44;;;27.38;40.62
32109;BME280;18624;50.042;8.436;2023-06-10T10:38:02;100213.28;;;27.42;40.14
32109;BME280;18624;50.042;8.436;2023-06-10T10:40:29;100221.31;;;27.38;39.91
32109;BME280;18624;50.042;8.436;2023-06-10T10:42:58;100217.72;;;27.37;40.59
32109;BME280;18624;50.042;8.436;2023-06-10T10:45:27;100208.88;;;27.33;40.90
32109;BME280;18624;50.042;8.436;2023-06-10T10:47:54;100201.97;;;27.34;40.44
32109;BME280;18624;50.042;8.436;2023-06-10T10:50:22;100202.50;;;27.33;40.47
32109;BME280;18624;50.042;8.436;2023-06-10T10:52:58;100183.38;;;27.10;40.32
32109;BME280;18624;50.042;8.436;2023-06-10T10:55:26;100195.78;;;27.36;40.06
32109;BME280;18624;50.042;8.436;2023-06-10T10:58:02;100199.25;;;27.49;40.81
32109;BME280;18624;50.042;8.436;2023-06-10T11:00:36;100205.16;;;27.59;40.27
32109;BME280;18624;50.042;8.436;2023-06-10T11:03:04;100198.44;;;27.62;40.45
32109;BME280;18624;50.042;8.436;2023-06-10T11:05:41;100199.31;;;27.57;40.38
32109;BME280;18624;50.042;8.436;2023-06-10T11:08:11;100192.72;;;27.55;41.16
32109;BME280;18624;50.042;8.436;2023-06-10T11:10:40;100184.84;;;27.53;40.70
32109;BME280;18624;50.042;8.436;2023-06-10T11:15:39;100180.78;;;27.62;40.45
32109;BME280;18624;50.042;8.436;2023-06-10T11:18:26;100178.03;;;27.69;40.51
32109;BME280;18624;50.042;8.436;2023-06-10T11:31:53;100163.72;;;27.67;39.69
32109;BME280;18624;50.042;8.436;2023-06-10T11:34:23;100167.16;;;27.73;38.86
32109;BME280;18624;50.042;8.436;2023-06-10T11:36:51;100161.75;;;27.75;39.28
32109;BME280;18624;50.042;8.436;2023-06-10T11:39:20;100167.44;;;27.83;38.88
32109;BME280;18624;50.042;8.436;2023-06-10T11:41:47;100117.19;;;27.66;38.58
32109;BME280;18624;50.042;8.436;2023-06-10T11:44:14;100152.44;;;27.96;38.94
32109;BME280;18624;50.042;8.436;2023-06-10T11:46:47;100154.13;;;27.91;38.83
32109;BME280;18624;50.042;8.436;2023-06-10T11:49:15;100150.16;;;27.87;38.94
32109;BME280;18624;50.042;8.436;2023-06-10T11:51:41;100149.00;;;27.82;38.41
32109;BME280;18624;50.042;8.436;2023-06-10T11:54:15;100157.44;;;27.74;38.53
32109;BME280;18624;50.042;8.436;2023-06-10T11:56:42;100157.28;;;27.80;37.74
32109;BME280;18624;50.042;8.436;2023-06-10T11:59:09;100141.13;;;27.81;36.53
32109;BME280;18624;50.042;8.436;2023-06-10T12:01:37;100141.31;;;27.83;35.93
32109;BME280;18624;50.042;8.436;2023-06-10T12:04:13;100089.31;;;27.47;36.78
32109;BME280;18624;50.042;8.436;2023-06-10T12:06:45;100156.78;;;27.97;36.72
32109;BME280;18624;50.042;8.436;2023-06-10T12:11:58;100144.84;;;28.12;36.74
32109;BME280;18624;50.042;8.436;2023-06-10T12:19:58;100131.16;;;28.16;36.96
32109;BME280;18624;50.042;8.436;2023-06-10T12:22:25;100114.16;;;28.00;35.88
32109;BME280;18624;50.042;8.436;2023-06-10T12:25:00;100144.94;;;28.35;35.34
32109;BME280;18624;50.042;8.436;2023-06-10T12:27:27;100061.56;;;27.88;34.92
32109;BME280;18624;50.042;8.436;2023-06-10T12:29:57;100133.59;;;28.27;35.49
32109;BME280;18624;50.042;8.436;2023-06-10T12:32:42;100127.03;;;28.32;34.44
32109;BME280;18624;50.042;8.436;2023-06-10T12:35:10;100110.69;;;28.23;34.48
32109;BME280;18624;50.042;8.436;2023-06-10T12:37:39;100122.16;;;28.25;35.10
32109;BME280;18624;50.042;8.436;2023-06-10T12:40:09;100130.97;;;28.21;36.15
32109;BME280;18624;50.042;8.436;2023-06-10T12:42:36;100132.13;;;28.34;35.27
32109;BME280;18624;50.042;8.436;2023-06-10T12:45:04;100125.75;;;28.33;36.00
32109;BME280;18624;50.042;8.436;2023-06-10T12:47:35;100130.06;;;28.34;36.59
32109;BME280;18624;50.042;8.436;2023-06-10T12:50:05;100085.63;;;28.04;36.10
32109;BME280;18624;50.042;8.436;2023-06-10T12:52:31;100125.78;;;28.41;36.12
32109;BME280;18624;50.042;8.436;2023-06-10T12:54:59;100132.56;;;28.38;36.05
32109;BME280;18624;50.042;8.436;2023-06-10T12:57:26;100137.81;;;28.41;36.24
32109;BME280;18624;50.042;8.436;2023-06-10T12:59:53;100120.91;;;28.49;35.67
32109;BME280;18624;50.042;8.436;2023-06-10T13:02:20;100122.06;;;28.54;35.36
32109;BME280;18624;50.042;8.436;2023-06-10T13:04:47;100092.47;;;28.24;36.20
32109;BME280;18624;50.042;8.436;2023-06-10T13:07:14;100118.28;;;28.43;36.17
32109;BME280;18624;50.042;8.436;2023-06-10T13:09:42;100120.53;;;28.37;35.66
32109;BME280;18624;50.042;8.436;2023-06-10T13:12:08;100084.13;;;28.03;35.65
32109;BME280;18624;50.042;8.436;2023-06-10T13:14:41;100123.84;;;28.20;36.55
32109;BME280;18624;50.042;8.436;2023-06-10T13:17:08;100121.72;;;28.13;37.00
32109;BME280;18624;50.042;8.436;2023-06-10T13:19:34;100117.78;;;28.09;37.47
32109;BME280;18624;50.042;8.436;2023-06-10T13:22:01;100116.84;;;28.06;38.12
32109;BME280;18624;50.042;8.436;2023-06-10T13:24:27;100083.94;;;27.93;36.74